createdAt,value
2018-02-10T00:00:51.478Z,19.12
2018-02-10T00:03:19.722Z,19.62
2018-02-10T00:05:47.210Z,19.60
2018-02-10T00:08:14.683Z,22.25
2018-02-10T00:10:42.909Z,18.42
2018-02-10T00:13:10.407Z,20.23
2018-02-10T00:15:37.917Z,20.95
2018-02-10T00:18:05.386Z,21.87
2018-02-10T00:20:32.889Z,22.45
2018-02-10T00:23:01.114Z,20.40
2018-02-10T00:25:28.586Z,23.23
2018-02-10T00:27:56.282Z,23.45
2018-02-10T00:30:24.514Z,24.33
2018-02-10T00:32:51.992Z,23.90
2018-02-10T00:35:20.256Z,24.83
2018-02-10T00:37:47.727Z,23.70
2018-02-10T00:40:15.190Z,25.27
2018-02-10T00:42:42.754Z,22.62
2018-02-10T00:45:10.986Z,25.88
2018-02-10T00:47:38.449Z,22.10
2018-02-10T00:50:05.942Z,24.35
2018-02-10T00:52:34.169Z,24.45
2018-02-10T00:55:01.643Z,25.00
2018-02-10T00:57:29.135Z,24.17
2018-02-10T00:59:57.374Z,25.10
2018-02-10T01:02:24.847Z,23.83
2018-02-10T01:04:52.345Z,25.60
2018-02-10T01:07:19.847Z,25.20
2018-02-10T01:09:47.398Z,26.90
2018-02-10T01:12:15.237Z,25.92
2018-02-10T01:14:42.722Z,26.37
2018-02-10T01:17:10.235Z,26.85
2018-02-10T01:19:37.701Z,26.58
2018-02-10T01:22:05.176Z,25.83
2018-02-10T01:24:32.659Z,26.90
2018-02-10T01:27:00.139Z,22.30
2018-02-10T01:29:28.460Z,25.73
2018-02-10T01:31:56.066Z,28.95
2018-02-10T01:34:23.538Z,27.27
2018-02-10T01:36:52.330Z,27.83
2018-02-10T01:39:20.570Z,26.37
2018-02-10T01:41:48.036Z,28.10
2018-02-10T01:44:17.025Z,27.37
2018-02-10T01:46:44.517Z,28.00
2018-02-10T01:49:11.998Z,29.00
2018-02-10T01:51:39.467Z,28.35
2018-02-10T01:54:06.950Z,26.95
2018-02-10T01:56:34.425Z,29.40
2018-02-10T01:59:01.980Z,27.55
2018-02-10T02:01:31.226Z,27.15
2018-02-10T02:03:58.696Z,27.67
2018-02-10T02:06:26.157Z,29.55
2018-02-10T02:08:53.858Z,27.40
2018-02-10T02:11:22.141Z,30.12
2018-02-10T02:13:50.422Z,27.75
2018-02-10T02:16:17.919Z,30.08
2018-02-10T02:18:45.381Z,29.45
2018-02-10T02:21:12.849Z,30.45
2018-02-10T02:23:40.332Z,30.12
2018-02-10T02:26:08.561Z,28.75
2018-02-10T02:28:36.073Z,32.03
2018-02-10T02:31:03.543Z,28.83
2018-02-10T02:33:31.804Z,30.25
2018-02-10T02:36:00.041Z,33.20
2018-02-10T02:38:27.541Z,30.15
2018-02-10T02:40:55.782Z,33.67
2018-02-10T02:43:23.250Z,31.87
2018-02-10T02:45:50.740Z,30.73
2018-02-10T02:48:18.321Z,34.03
2018-02-10T02:50:45.781Z,32.83
2018-02-10T02:53:13.278Z,29.77
2018-02-10T02:55:41.518Z,35.65
2018-02-10T02:58:08.985Z,34.00
2018-02-10T03:00:36.489Z,36.45
2018-02-10T03:03:04.720Z,35.42
2018-02-10T03:05:32.173Z,35.58
2018-02-10T03:07:59.663Z,39.22
2018-02-10T03:10:27.898Z,34.03
2018-02-10T03:12:55.363Z,34.35
2018-02-10T03:15:22.845Z,35.63
2018-02-10T03:17:50.409Z,36.00
2018-02-10T03:20:18.662Z,36.72
2018-02-10T03:22:46.162Z,33.85
2018-02-10T03:25:13.628Z,33.50
2018-02-10T03:27:41.106Z,32.53
2018-02-10T03:30:08.606Z,32.03
2018-02-10T03:32:36.079Z,37.70
2018-02-10T03:35:04.450Z,33.90
2018-02-10T03:37:32.723Z,32.67
2018-02-10T03:40:00.954Z,31.77
2018-02-10T03:42:28.441Z,29.98
2018-02-10T03:44:55.913Z,31.95
2018-02-10T03:47:24.150Z,32.28
2018-02-10T03:49:51.633Z,32.22
2018-02-10T03:52:19.106Z,33.40
2018-02-10T03:54:47.346Z,31.02
2018-02-10T03:57:14.951Z,33.22
2018-02-10T03:59:43.182Z,33.55
2018-02-10T04:02:10.651Z,33.08
2018-02-10T04:04:38.139Z,33.35
2018-02-10T04:07:06.370Z,32.40
2018-02-10T04:09:33.837Z,33.78
2018-02-10T04:12:01.505Z,33.97
2018-02-10T04:14:28.977Z,33.88
2018-02-10T04:16:57.215Z,35.33
2018-02-10T04:19:24.714Z,34.17
2018-02-10T04:21:52.958Z,36.70
2018-02-10T04:24:20.427Z,37.08
2018-02-10T04:26:47.909Z,37.42
2018-02-10T04:29:15.369Z,37.50
2018-02-10T04:31:42.854Z,37.35
2018-02-10T04:34:10.450Z,38.40
2018-02-10T04:36:37.926Z,36.58
2018-02-10T04:39:06.177Z,38.20
2018-02-10T04:41:33.682Z,37.53
2018-02-10T04:44:01.150Z,38.90
2018-02-10T04:46:28.619Z,37.05
2018-02-10T04:48:56.116Z,36.28
2018-02-10T04:51:23.596Z,36.28
2018-02-10T04:53:51.183Z,35.97
2018-02-10T04:56:18.671Z,34.40
2018-02-10T04:58:46.138Z,33.22
2018-02-10T05:01:15.127Z,33.10
2018-02-10T05:03:43.394Z,33.50
2018-02-10T05:06:10.866Z,32.27
2018-02-10T05:08:38.330Z,32.40
2018-02-10T05:11:05.825Z,29.80
2018-02-10T05:13:33.295Z,31.52
2018-02-10T05:16:00.757Z,28.20
2018-02-10T05:18:28.245Z,31.15
2018-02-10T05:20:55.736Z,31.90
2018-02-10T05:23:23.970Z,28.58
2018-02-10T05:25:51.462Z,27.73
2018-02-10T05:28:18.934Z,27.70
2018-02-10T05:30:46.448Z,26.75
2018-02-10T05:33:13.948Z,25.10
2018-02-10T05:35:41.429Z,25.98
2018-02-10T05:38:08.902Z,24.30
2018-02-10T05:40:36.581Z,25.55
2018-02-10T05:43:04.050Z,27.37
2018-02-10T05:45:32.282Z,26.65
2018-02-10T05:47:59.774Z,25.75
2018-02-10T05:50:27.241Z,26.83
2018-02-10T05:52:55.474Z,25.25
2018-02-10T05:55:22.969Z,24.63
2018-02-10T05:57:51.206Z,24.45
2018-02-10T06:00:18.682Z,27.30
2018-02-10T06:02:46.182Z,25.12
2018-02-10T06:05:13.710Z,24.65
2018-02-10T06:07:41.966Z,26.27
2018-02-10T06:10:09.690Z,26.77
2018-02-10T06:12:37.158Z,27.98
2018-02-10T06:15:04.631Z,27.30
2018-02-10T06:17:32.117Z,25.67
2018-02-10T06:19:59.582Z,25.23
2018-02-10T06:22:28.653Z,26.17
2018-02-10T06:24:56.131Z,27.20
2018-02-10T06:27:24.375Z,25.75
2018-02-10T06:29:51.872Z,25.65
2018-02-10T06:32:20.933Z,24.73
2018-02-10T06:34:48.458Z,26.55
2018-02-10T06:37:15.966Z,26.10
2018-02-10T06:39:43.531Z,24.30
2018-02-10T06:42:11.767Z,28.47
2018-02-10T06:44:39.254Z,25.17
2018-02-10T06:47:06.732Z,26.55
2018-02-10T06:49:34.962Z,26.15
2018-02-10T06:52:02.450Z,27.00
2018-02-10T06:54:30.688Z,25.62
2018-02-10T06:56:58.176Z,23.67
2018-02-10T06:59:26.095Z,24.75
2018-02-10T07:01:54.126Z,24.25
2018-02-10T07:04:22.393Z,24.47
2018-02-10T07:06:49.858Z,25.58
2018-02-10T07:09:18.089Z,24.37
2018-02-10T07:11:45.585Z,27.00
2018-02-10T07:14:13.818Z,26.13
2018-02-10T07:16:41.290Z,25.75
2018-02-10T07:19:08.793Z,26.97
2018-02-10T07:21:36.279Z,24.60
2018-02-10T07:24:03.754Z,24.58
2018-02-10T07:26:31.246Z,25.63
2018-02-10T07:28:59.497Z,27.62
2018-02-10T07:31:26.980Z,27.20
2018-02-10T07:33:55.283Z,26.97
2018-02-10T07:36:22.713Z,25.45
2018-02-10T07:38:50.950Z,27.20
2018-02-10T07:41:19.097Z,30.43
2018-02-10T07:43:46.567Z,22.70
2018-02-10T07:46:14.061Z,26.52
2018-02-10T07:48:42.293Z,28.80
2018-02-10T07:51:09.804Z,29.77
2018-02-10T07:53:38.043Z,27.97
2018-02-10T07:56:05.632Z,28.85
2018-02-10T07:58:33.865Z,27.77
2018-02-10T08:01:01.324Z,27.57
2018-02-10T08:03:28.806Z,29.27
2018-02-10T08:05:56.300Z,29.30
2018-02-10T08:08:23.879Z,27.97
2018-02-10T08:10:51.366Z,26.87
2018-02-10T08:13:18.834Z,29.73
2018-02-10T08:15:46.311Z,27.65
2018-02-10T08:18:14.686Z,29.25
2018-02-10T08:20:42.934Z,27.55
2018-02-10T08:23:10.413Z,27.27
2018-02-10T08:25:38.662Z,26.50
2018-02-10T08:28:06.136Z,26.48
2018-02-10T08:30:33.612Z,27.87
2018-02-10T08:33:01.874Z,27.23
2018-02-10T08:35:30.110Z,25.90
2018-02-10T08:37:57.583Z,27.97
2018-02-10T08:40:25.075Z,29.73
2018-02-10T08:42:53.326Z,30.70
2018-02-10T08:45:20.805Z,28.50
2018-02-10T08:47:49.065Z,28.33
2018-02-10T08:50:16.528Z,28.23
2018-02-10T08:52:44.766Z,27.20
2018-02-10T08:55:12.266Z,25.55
2018-02-10T08:57:39.789Z,30.97
2018-02-10T09:00:07.884Z,28.50
2018-02-10T09:02:35.721Z,29.48
2018-02-10T09:05:04.790Z,31.27
2018-02-10T09:07:32.265Z,27.33
2018-02-10T09:09:59.739Z,29.77
2018-02-10T09:12:27.217Z,29.05
2018-02-10T09:14:55.475Z,31.23
2018-02-10T09:17:24.215Z,29.53
2018-02-10T09:19:51.834Z,31.70
2018-02-10T09:22:20.807Z,28.80
2018-02-10T09:24:48.331Z,30.47
2018-02-10T09:27:15.819Z,27.43
2018-02-10T09:29:43.302Z,32.97
2018-02-10T09:32:10.750Z,32.63
2018-02-10T09:34:38.240Z,32.40
2018-02-10T09:37:05.693Z,29.90
2018-02-10T09:39:33.212Z,28.80
2018-02-10T09:42:00.665Z,32.10
2018-02-10T09:44:28.174Z,32.43
2018-02-10T09:46:55.662Z,31.20
2018-02-10T09:49:23.137Z,31.30
2018-02-10T09:51:50.593Z,28.90
2018-02-10T09:54:18.070Z,30.83
2018-02-10T09:56:46.305Z,32.20
2018-02-10T09:59:14.630Z,31.73
2018-02-10T10:01:42.903Z,33.73
2018-02-10T10:04:10.396Z,30.30
2018-02-10T10:06:37.867Z,28.70
2018-02-10T10:09:05.342Z,33.30
2018-02-10T10:11:32.814Z,30.20
2018-02-10T10:14:01.107Z,30.50
2018-02-10T10:16:28.659Z,31.20
2018-02-10T10:18:56.154Z,30.70
2018-02-10T10:21:23.608Z,31.80
2018-02-10T10:23:51.081Z,27.57
2018-02-10T10:26:18.589Z,31.10
2018-02-10T10:28:46.831Z,30.53
2018-02-10T10:31:14.299Z,28.53
2018-02-10T10:33:41.797Z,26.00
2018-02-10T10:36:09.691Z,27.93
2018-02-10T10:38:37.142Z,25.87
2018-02-10T10:41:04.746Z,24.23
2018-02-10T10:43:32.216Z,23.30
2018-02-10T10:46:00.624Z,24.63
2018-02-10T10:48:29.062Z,22.60
2018-02-10T10:50:57.309Z,21.33
2018-02-10T10:53:24.775Z,22.63
2018-02-10T10:55:52.271Z,21.77
2018-02-10T10:58:20.504Z,22.20
2018-02-10T11:00:47.986Z,21.33
2018-02-10T11:03:15.467Z,22.37
2018-02-10T11:05:42.934Z,20.20
2018-02-10T11:08:10.403Z,21.40
2018-02-10T11:10:37.890Z,20.63
2018-02-10T11:13:05.362Z,22.20
2018-02-10T11:15:32.858Z,21.87
2018-02-10T11:18:00.355Z,21.63
2018-02-10T11:20:27.827Z,23.10
2018-02-10T11:22:55.308Z,21.27
2018-02-10T11:25:23.526Z,22.40
2018-02-10T11:27:51.009Z,23.60
2018-02-10T11:30:18.486Z,22.60
2018-02-10T11:32:46.794Z,24.43
2018-02-10T11:35:14.278Z,23.70
2018-02-10T11:37:41.768Z,25.60
2018-02-10T11:40:09.239Z,25.60
2018-02-10T11:42:37.470Z,26.27
2018-02-10T11:45:05.723Z,25.60
2018-02-10T11:47:33.185Z,24.90
2018-02-10T11:50:01.499Z,26.10
2018-02-10T11:52:29.733Z,25.90
2018-02-10T11:54:57.218Z,24.17
2018-02-10T11:57:24.690Z,25.83
2018-02-10T11:59:52.359Z,25.03
2018-02-10T12:02:19.821Z,25.03
2018-02-10T12:04:48.050Z,25.37
2018-02-10T12:07:15.536Z,26.23
2018-02-10T12:09:42.995Z,26.23
2018-02-10T12:12:10.484Z,23.77
2018-02-10T12:14:38.740Z,24.47
2018-02-10T12:17:06.982Z,26.53
2018-02-10T12:19:34.461Z,27.07
2018-02-10T12:22:01.974Z,24.60
2018-02-10T12:24:29.442Z,27.87
2018-02-10T12:26:56.902Z,25.20
2018-02-10T12:29:24.419Z,25.60
2018-02-10T12:31:52.655Z,23.87
2018-02-10T12:34:20.130Z,27.13
2018-02-10T12:36:47.618Z,27.47
2018-02-10T12:39:15.098Z,28.13
2018-02-10T12:41:42.605Z,30.13
2018-02-10T12:44:10.838Z,28.10
2018-02-10T12:46:38.302Z,28.10
2018-02-10T12:49:11.517Z,27.70
2018-02-10T12:51:38.986Z,27.20
2018-02-10T12:54:07.224Z,25.53
2018-02-10T12:56:34.710Z,23.93
2018-02-10T12:59:02.203Z,24.77
2018-02-10T13:01:29.685Z,26.30
2018-02-10T13:03:57.330Z,25.13
2018-02-10T13:06:24.858Z,23.20
2018-02-10T13:08:52.346Z,25.70
2018-02-10T13:11:19.863Z,24.80
2018-02-10T13:13:47.298Z,24.40
2018-02-10T13:16:14.790Z,24.43
2018-02-10T13:18:43.024Z,23.60
2018-02-10T13:21:10.519Z,24.93
2018-02-10T13:23:38.751Z,24.80
2018-02-10T13:26:06.222Z,26.43
2018-02-10T13:28:33.809Z,25.50
2018-02-10T13:31:02.039Z,24.97
2018-02-10T13:33:29.514Z,25.90
2018-02-10T13:35:56.992Z,26.00
2018-02-10T13:38:25.250Z,27.60
2018-02-10T13:40:52.731Z,28.60
2018-02-10T13:43:20.953Z,26.90
2018-02-10T13:45:49.532Z,27.13
2018-02-10T13:51:16.619Z,26.17
2018-02-10T13:53:44.109Z,25.00
2018-02-10T13:56:13.326Z,25.50
2018-02-10T13:58:40.825Z,27.60
2018-02-10T14:01:08.314Z,26.30
2018-02-10T14:03:36.557Z,27.40
2018-02-10T14:06:04.024Z,26.93
2018-02-10T14:08:31.517Z,25.07
2018-02-10T14:10:59.738Z,24.50
2018-02-10T14:13:27.205Z,27.87
2018-02-10T14:15:54.693Z,26.97
2018-02-10T14:18:22.930Z,24.97
2018-02-10T14:20:50.389Z,26.47
2018-02-10T14:23:17.887Z,24.23
2018-02-10T14:25:46.126Z,20.30
2018-02-10T14:28:13.643Z,22.43
2018-02-10T14:30:41.124Z,23.07
2018-02-10T14:33:08.615Z,24.20
2018-02-10T14:35:36.850Z,23.93
2018-02-10T14:38:04.392Z,22.53
2018-02-10T14:40:32.569Z,24.50
2018-02-10T14:43:00.035Z,24.50
2018-02-10T14:45:27.635Z,25.67
2018-02-10T14:47:55.101Z,25.70
2018-02-10T14:50:23.322Z,23.77
2018-02-10T14:52:50.977Z,24.73
2018-02-10T14:55:18.447Z,24.10
2018-02-10T14:57:45.968Z,23.20
2018-02-10T15:00:13.446Z,22.70
2018-02-10T15:02:40.902Z,22.80
2018-02-10T15:05:08.373Z,23.40
2018-02-10T15:07:35.866Z,22.70
2018-02-10T15:10:03.365Z,23.57
2018-02-10T15:12:30.947Z,21.97
2018-02-10T15:14:58.426Z,21.17
2018-02-10T15:17:25.914Z,23.63
2018-02-10T15:19:54.142Z,21.63
2018-02-10T15:22:21.599Z,22.80
2018-02-10T15:24:50.982Z,20.93
2018-02-10T15:27:18.462Z,22.13
2018-02-10T15:29:57.746Z,18.50
2018-02-10T15:32:37.100Z,20.67
2018-02-10T15:35:04.583Z,19.13
2018-02-10T15:37:32.058Z,17.30
2018-02-10T15:39:59.593Z,19.50
2018-02-10T15:42:28.709Z,18.77
2018-02-10T15:44:56.178Z,17.40
2018-02-10T15:47:24.430Z,20.27
2018-02-10T15:49:51.906Z,20.83
2018-02-10T15:52:19.375Z,18.80
2018-02-10T15:54:47.625Z,18.10
2018-02-10T15:57:15.094Z,19.57
2018-02-10T15:59:43.566Z,16.57
2018-02-10T16:02:11.050Z,15.10
2018-02-10T16:04:39.287Z,14.40
2018-02-10T16:07:06.762Z,16.40
2018-02-10T16:09:34.250Z,15.00
2018-02-10T16:12:01.746Z,15.90
2018-02-10T16:14:29.241Z,16.13
2018-02-10T16:16:57.475Z,16.10
2018-02-10T16:19:24.938Z,15.93
2018-02-10T16:21:52.432Z,14.50
2018-02-10T16:24:20.713Z,14.00
2018-02-10T16:26:48.941Z,12.97
2018-02-10T16:29:16.431Z,13.70
2018-02-10T16:31:43.902Z,12.13
2018-02-10T16:34:12.166Z,14.40
2018-02-10T16:36:39.619Z,14.30
2018-02-10T16:39:07.087Z,13.60
2018-02-10T16:41:35.339Z,13.70
2018-02-10T16:44:02.804Z,13.97
2018-02-10T16:46:30.276Z,12.37
2018-02-10T16:48:58.526Z,13.60
2018-02-10T16:51:26.806Z,13.13
2018-02-10T16:53:54.297Z,13.35
2018-02-10T16:56:21.781Z,10.07
2018-02-10T16:58:49.381Z,12.80
2018-02-10T17:01:16.848Z,11.87
2018-02-10T17:03:45.124Z,11.80
2018-02-10T17:06:12.607Z,13.03
2018-02-10T17:08:40.078Z,11.87
2018-02-10T17:11:07.591Z,11.02
2018-02-10T17:13:35.814Z,12.33
2018-02-10T17:16:03.297Z,11.77
2018-02-10T17:18:30.793Z,11.73
2018-02-10T17:20:58.266Z,10.90
2018-02-10T17:23:25.742Z,11.10
2018-02-10T17:25:53.262Z,10.27
2018-02-10T17:28:21.522Z,12.13
2018-02-10T17:30:49.781Z,10.77
2018-02-10T17:33:17.259Z,10.95
2018-02-10T17:35:45.713Z,11.13
2018-02-10T17:38:13.193Z,12.50
2018-02-10T17:40:41.438Z,10.43
2018-02-10T17:43:08.898Z,10.30
2018-02-10T17:45:36.390Z,11.10
2018-02-10T17:48:04.628Z,10.33
2018-02-10T17:50:32.113Z,11.60
2018-02-10T17:52:59.578Z,11.03
2018-02-10T17:55:27.871Z,12.23
2018-02-10T17:57:56.333Z,13.83
2018-02-10T18:00:24.569Z,14.43
2018-02-10T18:02:52.064Z,13.43
2018-02-10T18:05:20.314Z,15.40
2018-02-10T18:07:47.795Z,13.43
2018-02-10T18:10:16.138Z,14.67
2018-02-10T18:12:43.615Z,12.90
2018-02-10T18:15:11.078Z,13.20
2018-02-10T18:17:39.350Z,14.18
2018-02-10T18:20:06.834Z,12.60
2018-02-10T18:22:34.298Z,12.80
2018-02-10T18:25:01.798Z,12.07
2018-02-10T18:27:30.035Z,12.07
2018-02-10T18:29:57.523Z,12.00
2018-02-10T18:32:25.006Z,12.57
2018-02-10T18:34:52.573Z,13.25
2018-02-10T18:37:20.046Z,11.35
2018-02-10T18:39:47.686Z,13.40
2018-02-10T18:42:15.174Z,12.60
2018-02-10T18:44:42.645Z,12.70
2018-02-10T18:47:10.142Z,11.05
2018-02-10T18:49:37.622Z,10.18
2018-02-10T18:52:05.868Z,11.43
2018-02-10T18:54:33.363Z,11.00
2018-02-10T18:57:01.603Z,9.80
2018-02-10T18:59:29.125Z,11.02
2018-02-10T19:01:56.592Z,11.45
2018-02-10T19:04:24.064Z,12.57
2018-02-10T19:06:51.568Z,10.30
2018-02-10T19:09:19.800Z,10.55
2018-02-10T19:11:47.302Z,10.07
2018-02-10T19:14:14.789Z,10.27
2018-02-10T19:16:42.258Z,12.48
2018-02-10T19:19:09.750Z,9.80
2018-02-10T19:21:37.995Z,8.95
2018-02-10T19:24:05.495Z,8.35
2018-02-10T19:26:32.987Z,9.20
2018-02-10T19:29:00.459Z,10.63
2018-02-10T19:31:27.946Z,8.90
2018-02-10T19:33:55.416Z,10.17
2018-02-10T19:36:23.671Z,9.60
2018-02-10T19:38:51.142Z,7.37
2018-02-10T19:41:19.367Z,8.80
2018-02-10T19:43:46.868Z,8.10
2018-02-10T19:46:14.350Z,8.80
2018-02-10T19:48:41.828Z,7.65
2018-02-10T19:51:09.324Z,6.70
2018-02-10T19:53:36.801Z,8.65
2018-02-10T19:56:05.067Z,7.45
2018-02-10T19:58:32.539Z,7.80
2018-02-10T20:01:00.814Z,7.35
2018-02-10T20:03:29.069Z,7.90
2018-02-10T20:05:56.619Z,5.97
2018-02-10T20:08:24.085Z,6.95
2018-02-10T20:10:51.579Z,6.93
2018-02-10T20:13:19.061Z,6.00
2018-02-10T20:15:46.558Z,5.45
2018-02-10T20:18:14.033Z,5.18
2018-02-10T20:20:42.286Z,6.77
2018-02-10T20:23:09.774Z,6.20
2018-02-10T20:25:37.250Z,5.65
2018-02-10T20:28:04.730Z,5.40
2018-02-10T20:30:32.997Z,5.40
2018-02-10T20:33:00.471Z,5.25
2018-02-10T20:35:28.708Z,6.00
2018-02-10T20:37:56.183Z,4.53
2018-02-10T20:40:23.650Z,4.20
2018-02-10T20:42:51.146Z,5.00
2018-02-10T20:45:19.372Z,4.20
2018-02-10T20:47:46.852Z,3.70
2018-02-10T20:50:14.346Z,3.83
2018-02-10T20:52:42.570Z,3.78
2018-02-10T20:55:10.034Z,4.85
2018-02-10T20:57:37.528Z,4.53
2018-02-10T21:00:05.745Z,5.40
2018-02-10T21:02:33.377Z,3.20
2018-02-10T21:05:00.858Z,4.10
2018-02-10T21:07:28.318Z,5.20
2018-02-10T21:09:55.814Z,5.87
2018-02-10T21:12:23.282Z,3.92
2018-02-10T21:14:51.510Z,4.20
2018-02-10T21:17:19.016Z,3.80
2018-02-10T21:19:47.831Z,2.97
2018-02-10T21:22:15.324Z,3.45
2018-02-10T21:24:42.778Z,4.32
2018-02-10T21:27:10.247Z,3.00
2018-02-10T21:29:37.732Z,4.18
2018-02-10T21:32:05.965Z,3.47
2018-02-10T21:34:33.443Z,3.10
2018-02-10T21:37:01.066Z,3.20
2018-02-10T21:39:28.611Z,3.90
2018-02-10T21:41:56.518Z,3.40
2018-02-10T21:44:24.004Z,3.00
2018-02-10T21:46:51.472Z,3.60
2018-02-10T21:49:20.306Z,2.45
2018-02-10T21:51:47.754Z,2.87
2018-02-10T21:54:15.227Z,3.95
2018-02-10T21:56:42.724Z,3.20
2018-02-10T21:59:11.450Z,5.03
2018-02-10T22:01:38.923Z,3.45
2018-02-10T22:04:06.419Z,3.72
2018-02-10T22:06:33.882Z,3.08
2018-02-10T22:09:02.153Z,3.65
2018-02-10T22:11:30.378Z,3.00
2018-02-10T22:13:57.849Z,2.95
2018-02-10T22:16:25.559Z,3.45
2018-02-10T22:18:53.027Z,3.42
2018-02-10T22:21:20.489Z,3.42
2018-02-10T22:23:47.986Z,3.10
2018-02-10T22:26:15.458Z,2.97
2018-02-10T22:28:43.715Z,3.12
2018-02-10T22:31:11.182Z,4.05
2018-02-10T22:33:38.666Z,4.05
2018-02-10T22:36:06.910Z,3.20
2018-02-10T22:38:34.393Z,4.57
2018-02-10T22:41:02.623Z,3.50
2018-02-10T22:43:30.110Z,4.30
2018-02-10T22:45:57.566Z,2.90
2018-02-10T22:48:25.058Z,3.60
2018-02-10T22:50:52.524Z,3.37
2018-02-10T22:53:19.990Z,2.57
2018-02-10T22:55:47.475Z,3.65
2018-02-10T22:58:14.933Z,3.12
2018-02-10T23:00:42.402Z,2.62
2018-02-10T23:03:12.494Z,3.93
2018-02-10T23:05:39.951Z,3.40
2018-02-10T23:08:07.531Z,3.62
2018-02-10T23:10:34.979Z,3.67
2018-02-10T23:13:02.469Z,3.15
2018-02-10T23:15:30.711Z,3.00
2018-02-10T23:17:58.183Z,3.30
2018-02-10T23:20:25.766Z,2.83
2018-02-10T23:22:53.254Z,3.10
2018-02-10T23:25:20.738Z,3.40
2018-02-10T23:27:48.228Z,2.93
2018-02-10T23:30:16.463Z,3.85
2018-02-10T23:32:43.929Z,3.30
2018-02-10T23:35:11.456Z,3.40
2018-02-10T23:37:38.908Z,3.63
2018-02-10T23:40:06.370Z,4.32
2018-02-10T23:42:33.858Z,4.77
2018-02-10T23:45:01.325Z,3.90
2018-02-10T23:47:28.818Z,5.60
2018-02-10T23:49:56.298Z,5.12
2018-02-10T23:52:23.755Z,5.35
2018-02-10T23:54:51.245Z,3.05
2018-02-10T23:57:20.230Z,5.30
2018-02-10T23:59:47.699Z,5.43
